x

West Washington - 300nm West Of Aberdeen, Wa (46005) Wave Buoy

2:50pm - Fri 25th Jul 2014 All times are UTC.

  • Sig Wave height 3.3ft
  • Swell Direction
  • Peak Period 7s
  • Average Period 5s
  • Wind
    7mph, 9mph gusts
  • Sea Temp 61°f
  • Air Temp 60°f
  • Sea Pressure 1021.8mb

More Historic Weather Station data

Upgrade to MSW Pro to gain access to the past 30 days of data for over 8000 Wavebouys and Weather Stations around the globe.

Join Pro

Comparision Forecast

View Surf forecast
   
Fri 07/25 2:50pm 3.5ft 7s 5s 7 9 mph 1021.8mb 61f 60f
1:50pm 3.5ft 7s 6s 9
mph
1022mb 61f 60f
12:50pm 3.5ft 6s 5s 9
mph
1021.8mb 61f 60f
11:50am 3.5ft 7s 5s 9 11 mph 1021.8mb 61f 60f
10:50am 3.5ft 6s 5s 9
mph
1022.1mb 61f 60f
9:50am 4ft 7s 5s 11 13 mph 1022.4mb 61f 60f
8:50am 4ft 7s 5s 11
mph
1022.6mb 61f 60f
7:50am 4ft 6s 5s 11 13 mph 1022.7mb 61f 60f
6:50am 4ft 6s 5s 13 16 mph 1023mb 61f 60f
5:50am 4ft 7s 5s 11 13 mph 1023.4mb 61f 61f
4:50am 4ft 7s 5s 11 13 mph 1023.1mb 61f 61f
3:50am 4ft 6s 5s 11 13 mph 1023.1mb 61f 61f
2:50am 4ft 7s 5s 11 13 mph 1023.4mb 61f 61f
1:50am 4.5ft 7s 5s 13 16 mph 1023.7mb 61f 60f
12:50am 4.5ft 7s 5s 13 16 mph 1024.3mb 61f 60f
Thu 07/24 11:50pm 4.5ft 7s 5s 13 18 mph 1024.8mb 61f 60f
10:50pm 4.5ft 7s 5s 13 16 mph 1025.2mb 61f 60f
9:50pm 5ft 7s 5s 13 18 mph 1025.5mb 61f 60f
8:50pm 5ft 7s 5s 13 16 mph 1025.9mb 61f 60f
7:50pm 5ft 7s 5s 11 13 mph 1026mb 61f 60f
6:50pm 5ft 7s 6s 16 20 mph 1026mb 61f 60f
5:50pm 5.5ft 7s 6s 11 13 mph 1026mb 61f 61f
4:50pm 6ft 7s 6s 11 13 mph 1025.9mb 61f 61f
3:50pm 5ft 8s 5s 13 18 mph 1025.7mb 61f 61f
2:50pm 5ft 8s 5s 18 20 mph 1025.5mb 61f 60f
1:50pm 6.5ft 7s 6s 13 18 mph 1025.6mb 61f 60f
12:50pm 6ft 8s 6s 18 22 mph 1025.4mb 61f 60f
11:50am 6.5ft 8s 6s 16 18 mph 1025.4mb 61f 60f
10:50am 7ft 7s 6s 18 20 mph 1025.4mb 61f 60f
9:50am 7ft 8s 6s 13 18 mph 1025.4mb 61f 60f
8:50am 7ft 7s 6s 16 18 mph 1025.2mb 61f 60f
7:50am 7.5ft 8s 6s 18 22 mph 1024.9mb 61f 60f
6:50am 7ft 8s 6s 22 27 mph 1024.5mb 61f 60f
5:50am 7ft 8s 6s 22 27 mph 1024.2mb 61f 61f
4:50am 7ft 8s 6s 22 25 mph 1023.8mb 61f 60f
3:50am 7ft 8s 6s 22 27 mph 1023.2mb 61f 61f
2:50am 7ft 8s 6s 22 29 mph 1022.9mb 61f 61f
1:50am 6.5ft 6s 5s 22 27 mph 1022.7mb 61f 60f
12:50am 6.5ft 6s 6s 22 27 mph 1022.6mb 61f 61f
Wed 07/23 11:50pm 7ft 6s 5s 22 27 mph 1022.3mb 61f 61f
10:50pm 6ft 8s 5s 22 27 mph 1022.1mb 61f 60f
9:50pm 7ft 7s 6s 22 27 mph 1021.7mb 61f 60f
8:50pm 6.5ft 7s 6s 20 27 mph 1021.1mb 61f 60f
7:50pm 6ft 7s 5s 20 27 mph 1020.8mb 61f 60f
6:50pm 5.5ft 6s 5s 20 25 mph 1020.4mb 61f 60f
5:50pm 5.5ft 7s 5s 20 25 mph 1020.1mb 61f 60f
4:50pm 5.5ft 6s 5s 20 22 mph 1019.6mb 61f 60f
3:50pm 5ft 9s 5s 22 25 mph 1019.1mb 61f 60f
2:50pm 5ft 8s 5s 22 25 mph 1018.7mb 61f 60f
1:50pm 5ft 8s 5s 18 20 mph 1018.4mb 61f 60f
12:50pm 5ft 8s 5s 18 22 mph 1018.1mb 61f 60f
11:50am 4.5ft 8s 5s 20 22 mph 1018mb 61f 60f
10:50am 5ft 8s 5s 18 20 mph 1018mb 61f 60f
9:50am 5ft 8s 5s 18 20 mph 1018.2mb 61f 60f
8:50am 5ft 8s 6s 18 20 mph 1018.2mb 61f 60f
7:50am 4.5ft 8s 6s 13 16 mph 1018.5mb 61f 60f
6:50am 5ft 8s 6s 16 18 mph 1018.3mb 61f 59f
5:50am 5ft 8s 6s 13 16 mph 1018.4mb 61f 60f
4:50am 4.5ft 8s 6s 16 20 mph 1018.2mb 61f 60f
3:50am 5ft 8s 6s 16 18 mph 1017.8mb 61f 60f
2:50am 5ft 9s 6s 13 16 mph 1017.6mb 61f 60f
1:50am 4.5ft 8s 6s 13 16 mph 1017.6mb 61f 60f
12:50am 5ft 8s 6s 11 13 mph 1017.6mb 62f 60f
Tue 07/22 11:50pm 4.5ft 9s 6s 11 13 mph 1017.8mb 61f 60f
10:50pm 5ft 8s 6s 11 13 mph 1017.8mb 61f 60f
9:50pm 4.5ft 9s 6s 9 11 mph 1017.8mb 61f 60f
8:50pm 5ft 8s 6s 11 13 mph 1017.4mb 61f 60f
7:50pm 5ft 8s 6s 11 13 mph 1017.1mb 61f 59f
6:50pm 4.5ft 7s 7s 11 13 mph 1016.9mb 61f 59f
5:50pm 4.5ft 11s 7s 11
mph
1016.6mb 61f 59f
4:50pm 4.5ft 10s 7s 7 9 mph 1016.3mb 61f 59f
3:50pm 4.5ft 8s 6s 11 13 mph 1016.1mb 61f 59f
2:50pm 4ft 11s 6s 9 11 mph 1015.8mb 61f 59f
1:50pm 4.5ft 6s 6s 11 13 mph 1015.4mb 61f 59f
12:50pm 4ft 11s 6s 11 13 mph 1015.1mb 61f 59f
11:50am 4ft 11s 6s 9 11 mph 1015.3mb 61f 59f
10:50am 4.5ft 10s 6s 9 11 mph 1015.4mb 61f 60f
9:50am 3.5ft 10s 6s 7 11 mph 1015.8mb 61f 59f
8:50am 4ft 11s 6s 7
mph
1015.8mb 61f 58f
7:50am 3.5ft 11s 6s 9 11 mph 1016mb 61f 57f
6:50am 3.5ft 11s 6s 9 11 mph 1015.8mb 61f 58f
5:50am 3.5ft 7s 7s 11 13 mph 1015.7mb 61f 58f
4:50am 4ft 10s 7s 11 13 mph 1015.7mb 61f 57f
3:50am 3.5ft 11s 7s 9 13 mph 1015.7mb 61f 60f
2:50am 4ft 11s 7s 11
mph
1015.9mb 61f 60f
1:50am 4ft 8s 7s 11
mph
1015.9mb 61f 60f
12:50am 4ft 9s 7s 9 11 mph 1016.5mb 61f 60f
Mon 07/21 11:50pm 4.5ft 11s 7s 11 13 mph 1016.8mb 61f 59f
10:50pm 4.5ft 10s 8s 9 11 mph 1017.1mb 61f 59f
9:50pm 4.5ft 10s 8s 9 11 mph 1017.2mb 61f 58f
8:50pm 5ft 10s 7s 9 11 mph 1017.6mb 61f 56f
7:50pm 4.5ft 11s 7s 11
mph
1017.8mb 61f 58f
6:50pm 4.5ft 11s 7s 4 7 mph 1017.9mb 61f 59f
5:50pm 4.5ft 11s 7s 4 7 mph 1017.9mb 61f 60f
4:50pm 4.5ft 11s 7s 2 4 mph 1018.1mb 61f 60f